createdAt,value
2018-05-25T00:02:12.687Z,100680.48
2018-05-25T00:04:41.015Z,100684.14
2018-05-25T00:07:09.380Z,100683.61
2018-05-25T00:09:37.692Z,100679.70
2018-05-25T00:12:06.789Z,100679.20
2018-05-25T00:14:35.854Z,100680.02
2018-05-25T00:17:04.154Z,100671.55
2018-05-25T00:19:33.298Z,100672.77
2018-05-25T00:22:01.805Z,100672.89
2018-05-25T00:24:30.258Z,100670.86
2018-05-25T00:26:58.594Z,100673.14
2018-05-25T00:29:27.935Z,100667.52
2018-05-25T00:31:56.231Z,100660.59
2018-05-25T00:34:24.949Z,100664.53
2018-05-25T00:36:53.262Z,100664.31
2018-05-25T00:39:21.576Z,100664.44
2018-05-25T00:41:49.915Z,100667.66
2018-05-25T00:44:18.221Z,100662.12
2018-05-25T00:46:46.541Z,100660.59
2018-05-25T00:49:14.874Z,100659.56
2018-05-25T00:51:43.197Z,100654.20
2018-05-25T00:54:11.510Z,100651.10
2018-05-25T00:56:39.828Z,100648.42
2018-05-25T00:59:08.225Z,100648.27
2018-05-25T01:01:36.521Z,100651.35
2018-05-25T01:04:05.596Z,100654.41
2018-05-25T01:06:33.890Z,100652.13
2018-05-25T01:09:02.944Z,100649.45
2018-05-25T01:11:31.253Z,100656.63
2018-05-25T01:13:59.537Z,100660.72
2018-05-25T01:16:28.910Z,100660.94
2018-05-25T01:18:57.204Z,100657.63
2018-05-25T01:21:25.504Z,100658.04
2018-05-25T01:23:54.569Z,100661.72
2018-05-25T01:26:22.873Z,100659.81
2018-05-25T01:28:51.918Z,100662.06
2018-05-25T01:31:20.895Z,100663.00
2018-05-25T01:33:49.234Z,100661.03
2018-05-25T01:36:18.287Z,100673.53
2018-05-25T01:38:46.597Z,100661.31
2018-05-25T01:41:14.912Z,100661.25
2018-05-25T01:43:43.239Z,100660.44
2018-05-25T01:46:11.556Z,100655.26
2018-05-25T01:48:40.691Z,100657.19
2018-05-25T01:51:09.718Z,100661.63
2018-05-25T01:53:38.127Z,100651.58
2018-05-25T01:56:07.266Z,100651.04
2018-05-25T01:58:36.402Z,100655.95
2018-05-25T02:01:05.538Z,100655.88
2018-05-25T02:03:34.307Z,100654.88
2018-05-25T02:06:02.735Z,100652.45
2018-05-25T02:08:32.180Z,100659.28
2018-05-25T02:11:01.264Z,100660.00
2018-05-25T02:13:29.581Z,100662.28
2018-05-25T02:15:58.095Z,100649.80
2018-05-25T02:18:26.480Z,100652.66
2018-05-25T02:20:55.569Z,100659.56
2018-05-25T02:23:23.896Z,100655.84
2018-05-25T02:25:52.989Z,100655.41
2018-05-25T02:28:22.167Z,100657.66
2018-05-25T02:30:50.518Z,100645.20
2018-05-25T02:33:18.837Z,100644.84
2018-05-25T02:35:47.934Z,100649.47
2018-05-25T02:38:17.005Z,100645.84
2018-05-25T02:40:45.316Z,100643.06
2018-05-25T02:43:14.412Z,100644.34
2018-05-25T02:45:43.473Z,100645.12
2018-05-25T02:48:11.768Z,100636.66
2018-05-25T02:50:40.202Z,100640.84
2018-05-25T02:53:08.503Z,100638.22
2018-05-25T02:55:37.264Z,100632.01
2018-05-25T02:58:05.550Z,100632.53
2018-05-25T03:00:33.885Z,100630.20
2018-05-25T03:03:02.955Z,100631.41
2018-05-25T03:05:31.273Z,100636.50
2018-05-25T03:08:00.337Z,100636.34
2018-05-25T03:10:29.432Z,100626.63
2018-05-25T03:12:57.720Z,100630.16
2018-05-25T03:15:26.800Z,100624.95
2018-05-25T03:17:55.089Z,100625.73
2018-05-25T03:20:24.196Z,100619.86
2018-05-25T03:22:53.340Z,100621.48
2018-05-25T03:25:21.653Z,100620.39
2018-05-25T03:27:49.974Z,100623.42
2018-05-25T03:30:18.290Z,100622.64
2018-05-25T03:32:46.606Z,100622.52
2018-05-25T03:35:15.654Z,100623.33
2018-05-25T03:37:44.776Z,100626.27
2018-05-25T03:40:13.098Z,100631.39
2018-05-25T03:42:41.830Z,100631.79
2018-05-25T03:45:10.148Z,100627.89
2018-05-25T03:47:39.358Z,100626.92
2018-05-25T03:50:07.810Z,100626.92
2018-05-25T03:52:36.937Z,100625.58
2018-05-25T03:55:05.284Z,100626.14
2018-05-25T03:57:34.500Z,100637.19
2018-05-25T04:00:21.331Z,100644.24
2018-05-25T04:02:49.661Z,100644.00
2018-05-25T04:05:18.017Z,100646.87
2018-05-25T04:07:46.428Z,100645.66
2018-05-25T04:10:14.853Z,100642.98
2018-05-25T04:12:44.448Z,100654.13
2018-05-25T04:15:12.747Z,100648.22
2018-05-25T04:17:41.043Z,100650.47
2018-05-25T04:20:09.356Z,100645.58
2018-05-25T04:22:38.410Z,100648.23
2018-05-25T04:25:06.751Z,100643.14
2018-05-25T04:27:35.045Z,100651.45
2018-05-25T04:30:03.394Z,100657.22
2018-05-25T04:32:32.456Z,100654.85
2018-05-25T04:35:00.785Z,100646.89
2018-05-25T04:37:29.103Z,100649.80
2018-05-25T04:39:57.410Z,100649.42
2018-05-25T04:42:26.476Z,100657.04
2018-05-25T04:44:54.772Z,100656.85
2018-05-25T04:47:23.200Z,100656.51
2018-05-25T04:49:51.481Z,100661.81
2018-05-25T04:52:19.811Z,100663.56
2018-05-25T04:54:48.076Z,100659.66
2018-05-25T04:57:16.376Z,100654.01
2018-05-25T04:59:45.731Z,100657.69
2018-05-25T05:02:14.052Z,100662.12
2018-05-25T05:04:43.071Z,100667.44
2018-05-25T05:07:11.394Z,100669.56
2018-05-25T05:09:39.716Z,100676.08
2018-05-25T05:12:08.862Z,100680.93
2018-05-25T05:14:37.288Z,100675.20
2018-05-25T05:17:05.612Z,100677.74
2018-05-25T05:19:33.990Z,100678.14
2018-05-25T05:22:02.276Z,100681.16
2018-05-25T05:24:30.561Z,100675.59
2018-05-25T05:26:59.630Z,100682.11
2018-05-25T05:29:27.921Z,100674.52
2018-05-25T05:31:56.248Z,100680.40
2018-05-25T05:34:25.303Z,100679.77
2018-05-25T05:36:53.608Z,100674.73
2018-05-25T05:39:21.943Z,100676.75
2018-05-25T05:41:50.535Z,100677.95
2018-05-25T05:44:18.883Z,100684.00
2018-05-25T05:46:47.192Z,100678.66
2018-05-25T05:49:15.500Z,100678.42
2018-05-25T05:51:43.832Z,100677.37
2018-05-25T05:54:12.146Z,100682.58
2018-05-25T05:56:40.601Z,100687.80
2018-05-25T05:59:08.897Z,100681.89
2018-05-25T06:01:37.220Z,100695.58
2018-05-25T06:04:06.450Z,100696.14
2018-05-25T06:06:34.745Z,100691.81
2018-05-25T06:09:03.091Z,100688.82
2018-05-25T06:11:31.389Z,100688.45
2018-05-25T06:13:59.784Z,100691.53
2018-05-25T06:16:28.077Z,100693.86
2018-05-25T06:18:56.394Z,100689.09
2018-05-25T06:21:24.669Z,100691.55
2018-05-25T06:23:53.121Z,100693.31
2018-05-25T06:26:21.421Z,100695.13
2018-05-25T06:28:50.505Z,100700.70
2018-05-25T06:31:19.605Z,100700.23
2018-05-25T06:33:48.692Z,100707.30
2018-05-25T06:36:16.991Z,100706.02
2018-05-25T06:38:46.125Z,100700.69
2018-05-25T06:41:14.443Z,100702.97
2018-05-25T06:43:42.745Z,100698.34
2018-05-25T06:46:12.275Z,100701.84
2018-05-25T06:48:40.670Z,100701.75
2018-05-25T06:51:08.997Z,100696.72
2018-05-25T06:53:38.132Z,100705.05
2018-05-25T06:56:06.499Z,100709.52
2018-05-25T06:58:34.782Z,100706.02
2018-05-25T07:01:03.132Z,100698.64
2018-05-25T07:03:32.166Z,100701.80
2018-05-25T07:06:00.467Z,100705.69
2018-05-25T07:08:28.820Z,100710.11
2018-05-25T07:10:57.413Z,100714.52
2018-05-25T07:13:25.732Z,100721.09
2018-05-25T07:15:54.793Z,100717.09
2018-05-25T07:18:23.117Z,100723.92
2018-05-25T07:20:52.253Z,100723.52
2018-05-25T07:23:20.532Z,100717.81
2018-05-25T07:25:48.841Z,100718.37
2018-05-25T07:28:17.154Z,100718.22
2018-05-25T07:30:46.330Z,100715.23
2018-05-25T07:33:14.647Z,100711.99
2018-05-25T07:35:42.941Z,100715.84
2018-05-25T07:38:11.273Z,100712.20
2018-05-25T07:40:40.322Z,100711.00
2018-05-25T07:43:08.640Z,100718.79
2018-05-25T07:45:38.456Z,100721.45
2018-05-25T07:48:07.553Z,100717.58
2018-05-25T07:50:36.753Z,100721.54
2018-05-25T07:53:05.804Z,100729.88
2018-05-25T07:55:34.160Z,100721.09
2018-05-25T07:58:02.520Z,100724.31
2018-05-25T08:00:31.637Z,100722.84
2018-05-25T08:03:00.239Z,100725.95
2018-05-25T08:05:28.537Z,100724.63
2018-05-25T08:07:56.799Z,100720.35
2018-05-25T08:10:25.150Z,100720.51
2018-05-25T08:12:53.434Z,100719.78
2018-05-25T08:15:21.773Z,100715.02
2018-05-25T08:17:50.844Z,100718.13
2018-05-25T08:20:19.160Z,100718.13
2018-05-25T08:22:48.254Z,100711.33
2018-05-25T08:25:17.335Z,100713.22
2018-05-25T08:27:46.382Z,100722.02
2018-05-25T08:30:14.756Z,100715.94
2018-05-25T08:32:43.085Z,100719.60
2018-05-25T08:35:12.205Z,100721.50
2018-05-25T08:37:41.365Z,100730.41
2018-05-25T08:40:09.650Z,100726.05
2018-05-25T08:42:37.985Z,100731.05
2018-05-25T08:45:06.628Z,100732.22
2018-05-25T08:47:35.757Z,100746.72
2018-05-25T08:50:04.082Z,100752.33
2018-05-25T08:52:32.375Z,100748.49
2018-05-25T08:55:01.468Z,100751.33
2018-05-25T08:57:29.781Z,100751.80
2018-05-25T08:59:58.065Z,100745.70
2018-05-25T09:02:26.542Z,100747.27
2018-05-25T09:04:54.830Z,100739.98
2018-05-25T09:07:23.122Z,100743.36
2018-05-25T09:09:51.437Z,100736.22
2018-05-25T09:12:20.532Z,100738.94
2018-05-25T09:14:49.615Z,100740.73
2018-05-25T09:17:17.933Z,100740.99
2018-05-25T09:19:46.252Z,100743.83
2018-05-25T09:22:14.641Z,100733.15
2018-05-25T09:24:42.921Z,100748.97
2018-05-25T09:27:11.225Z,100748.27
2018-05-25T09:29:40.365Z,100745.16
2018-05-25T09:32:08.992Z,100752.44
2018-05-25T09:34:38.077Z,100753.38
2018-05-25T09:37:06.361Z,100751.97
2018-05-25T09:39:34.674Z,100757.33
2018-05-25T09:42:03.054Z,100760.31
2018-05-25T09:44:31.302Z,100753.06
2018-05-25T09:46:59.623Z,100766.75
2018-05-25T09:49:28.138Z,100759.03
2018-05-25T09:51:56.482Z,100763.13
2018-05-25T09:54:24.998Z,100758.34
2018-05-25T09:57:01.097Z,100756.52
2018-05-25T09:59:30.200Z,100760.17
2018-05-25T10:01:59.258Z,100759.59
2018-05-25T10:04:27.630Z,100761.34
2018-05-25T10:06:55.915Z,100757.71
2018-05-25T10:09:24.229Z,100752.23
2018-05-25T10:11:53.265Z,100749.63
2018-05-25T10:14:21.564Z,100748.31
2018-05-25T10:16:49.878Z,100744.12
2018-05-25T10:19:18.165Z,100744.23
2018-05-25T10:21:46.526Z,100744.06
2018-05-25T10:24:15.646Z,100745.28
2018-05-25T10:26:43.940Z,100742.14
2018-05-25T10:29:12.461Z,100743.53
2018-05-25T10:31:40.792Z,100740.91
2018-05-25T10:34:09.197Z,100735.00
2018-05-25T10:36:37.546Z,100735.47
2018-05-25T10:39:06.765Z,100735.15
2018-05-25T10:41:35.132Z,100734.68
2018-05-25T10:44:03.563Z,100739.86
2018-05-25T10:46:32.014Z,100728.06
2018-05-25T10:49:00.288Z,100737.14
2018-05-25T10:51:28.585Z,100736.87
2018-05-25T10:53:56.912Z,100738.66
2018-05-25T10:56:25.212Z,100734.15
2018-05-25T10:58:53.543Z,100738.33
2018-05-25T11:01:22.718Z,100748.29
2018-05-25T11:03:51.048Z,100731.31
2018-05-25T11:06:19.341Z,100737.58
2018-05-25T11:08:47.647Z,100735.59
2018-05-25T11:11:16.071Z,100732.20
2018-05-25T11:13:44.381Z,100729.33
2018-05-25T11:16:12.665Z,100724.10
2018-05-25T11:18:41.017Z,100723.38
2018-05-25T11:21:09.290Z,100719.30
2018-05-25T11:23:37.674Z,100721.52
2018-05-25T11:26:06.021Z,100722.53
2018-05-25T11:28:35.117Z,100718.55
2018-05-25T11:31:04.195Z,100714.20
2018-05-25T11:33:32.476Z,100712.84
2018-05-25T11:36:00.818Z,100711.09
2018-05-25T11:38:29.138Z,100713.56
2018-05-25T11:40:57.434Z,100716.72
2018-05-25T11:43:26.524Z,100708.75
2018-05-25T11:45:55.563Z,100709.85
2018-05-25T11:48:23.857Z,100710.44
2018-05-25T11:50:52.156Z,100706.94
2018-05-25T11:53:20.918Z,100714.31
2018-05-25T11:55:49.203Z,100712.84
2018-05-25T11:58:17.530Z,100713.81
2018-05-25T12:00:45.836Z,100718.58
2018-05-25T12:03:14.164Z,100722.27
2018-05-25T12:05:43.234Z,100729.11
2018-05-25T12:08:11.509Z,100732.00
2018-05-25T12:10:39.839Z,100732.05
2018-05-25T12:13:08.978Z,100736.07
2018-05-25T12:15:37.285Z,100732.94
2018-05-25T12:18:05.644Z,100739.80
2018-05-25T12:20:34.065Z,100731.61
2018-05-25T12:23:03.127Z,100736.37
2018-05-25T12:25:32.962Z,100726.98
2018-05-25T12:28:02.082Z,100734.43
2018-05-25T12:30:30.414Z,100727.19
2018-05-25T12:32:58.724Z,100719.06
2018-05-25T12:35:27.015Z,100724.61
2018-05-25T12:37:55.334Z,100722.95
2018-05-25T12:40:23.954Z,100725.59
2018-05-25T12:42:53.045Z,100723.09
2018-05-25T12:45:21.344Z,100723.66
2018-05-25T12:47:49.680Z,100719.73
2018-05-25T12:50:18.023Z,100715.77
2018-05-25T12:52:46.440Z,100716.80
2018-05-25T12:55:14.739Z,100720.88
2018-05-25T12:57:43.050Z,100714.56
2018-05-25T13:00:11.486Z,100718.84
2018-05-25T13:02:39.811Z,100714.30
2018-05-25T13:05:08.097Z,100712.88
2018-05-25T13:07:36.443Z,100709.59
2018-05-25T13:10:05.490Z,100714.34
2018-05-25T13:12:33.789Z,100717.83
2018-05-25T13:15:02.139Z,100715.12
2018-05-25T13:17:30.436Z,100711.05
2018-05-25T13:19:59.575Z,100715.81
2018-05-25T13:22:28.677Z,100716.71
2018-05-25T13:24:57.029Z,100714.73
2018-05-25T13:27:25.390Z,100716.51
2018-05-25T13:29:54.563Z,100714.30
2018-05-25T13:32:22.887Z,100709.65
2018-05-25T13:34:51.955Z,100711.09
2018-05-25T13:37:20.262Z,100705.92
2018-05-25T13:39:49.312Z,100711.73
2018-05-25T13:42:17.613Z,100720.83
2018-05-25T13:44:45.933Z,100712.55
2018-05-25T13:47:14.230Z,100716.45
2018-05-25T13:49:42.721Z,100721.72
2018-05-25T13:52:11.011Z,100713.27
2018-05-25T13:54:39.339Z,100712.48
2018-05-25T13:57:07.634Z,100721.20
2018-05-25T13:59:36.096Z,100708.88
2018-05-25T14:02:05.135Z,100703.15
2018-05-25T14:04:33.526Z,100707.29
2018-05-25T14:07:01.962Z,100709.34
2018-05-25T14:09:31.440Z,100703.78
2018-05-25T14:11:59.849Z,100702.97
2018-05-25T14:14:28.244Z,100700.14
2018-05-25T14:16:56.568Z,100708.84
2018-05-25T14:19:24.879Z,100692.41
2018-05-25T14:21:53.903Z,100707.75
2018-05-25T14:24:22.180Z,100706.17
2018-05-25T14:26:50.506Z,100706.05
2018-05-25T14:29:19.601Z,100696.76
2018-05-25T14:31:48.653Z,100710.23
2018-05-25T14:34:17.029Z,100694.05
2018-05-25T14:36:45.325Z,100702.15
2018-05-25T14:39:13.691Z,100696.94
2018-05-25T14:41:42.017Z,100693.52
2018-05-25T14:44:11.105Z,100698.53
2018-05-25T14:46:40.205Z,100690.77
2018-05-25T14:49:08.551Z,100685.64
2018-05-25T14:51:36.864Z,100690.64
2018-05-25T14:54:05.897Z,100686.69
2018-05-25T14:56:34.425Z,100685.98
2018-05-25T14:59:03.531Z,100683.77
2018-05-25T15:01:31.855Z,100695.61
2018-05-25T15:04:00.155Z,100683.59
2018-05-25T15:06:28.438Z,100681.47
2018-05-25T15:08:56.723Z,100686.20
2018-05-25T15:11:25.039Z,100684.56
2018-05-25T15:13:53.358Z,100684.69
2018-05-25T15:16:21.661Z,100684.58
2018-05-25T15:18:49.991Z,100679.47
2018-05-25T15:21:18.409Z,100679.49
2018-05-25T15:23:47.453Z,100681.27
2018-05-25T15:26:15.757Z,100683.73
2018-05-25T15:28:44.073Z,100687.08
2018-05-25T15:31:12.422Z,100687.59
2018-05-25T15:33:40.746Z,100689.47
2018-05-25T15:36:09.793Z,100683.72
2018-05-25T15:38:38.376Z,100674.92
2018-05-25T15:41:06.938Z,100683.25
2018-05-25T15:43:35.257Z,100670.44
2018-05-25T15:46:03.584Z,100668.84
2018-05-25T15:48:31.902Z,100666.27
2018-05-25T15:51:00.263Z,100660.52
2018-05-25T15:53:28.624Z,100654.19
2018-05-25T15:55:56.925Z,100655.34
2018-05-25T15:58:25.204Z,100653.91
2018-05-25T16:00:53.475Z,100650.03
2018-05-25T16:03:21.849Z,100651.72
2018-05-25T16:05:50.133Z,100653.73
2018-05-25T16:08:18.457Z,100652.38
2018-05-25T16:10:46.772Z,100652.38
2018-05-25T16:13:15.074Z,100649.33
2018-05-25T16:15:43.401Z,100646.70
2018-05-25T16:18:12.488Z,100648.27
2018-05-25T16:20:40.998Z,100647.17
2018-05-25T16:23:09.289Z,100653.50
2018-05-25T16:25:37.607Z,100652.98
2018-05-25T16:28:05.932Z,100651.75
2018-05-25T16:30:34.229Z,100642.95
2018-05-25T16:33:02.534Z,100642.83
2018-05-25T16:35:30.931Z,100641.06
2018-05-25T16:37:59.212Z,100639.20
2018-05-25T16:40:27.547Z,100643.72
2018-05-25T16:42:55.865Z,100649.77
2018-05-25T16:45:24.175Z,100650.78
2018-05-25T16:47:53.240Z,100648.07
2018-05-25T16:50:21.565Z,100645.35
2018-05-25T16:52:49.970Z,100639.30
2018-05-25T16:55:18.256Z,100652.55
2018-05-25T16:57:46.581Z,100653.51
2018-05-25T17:00:14.930Z,100647.13
2018-05-25T17:02:43.355Z,100650.00
2018-05-25T17:05:11.756Z,100647.94
2018-05-25T17:07:40.046Z,100648.48
2018-05-25T17:10:08.396Z,100645.60
2018-05-25T17:12:36.710Z,100646.63
2018-05-25T17:15:05.005Z,100648.75
2018-05-25T17:17:34.056Z,100650.80
2018-05-25T17:20:02.360Z,100641.55
2018-05-25T17:22:30.696Z,100654.14
2018-05-25T17:27:33.842Z,100648.45
2018-05-25T17:30:02.160Z,100650.52
2018-05-25T17:32:31.220Z,100647.25
2018-05-25T17:34:59.527Z,100649.12
2018-05-25T17:37:28.586Z,100644.05
2018-05-25T17:39:56.965Z,100651.70
2018-05-25T17:42:25.284Z,100647.97
2018-05-25T17:44:54.341Z,100653.77
2018-05-25T17:47:22.668Z,100645.88
2018-05-25T17:49:51.048Z,100643.55
2018-05-25T17:52:19.381Z,100645.31
2018-05-25T17:54:47.861Z,100656.59
2018-05-25T17:57:16.177Z,100649.09
2018-05-25T17:59:45.258Z,100652.16
2018-05-25T18:02:13.545Z,100655.16
2018-05-25T18:04:42.632Z,100657.59
2018-05-25T18:07:10.965Z,100665.69
2018-05-25T18:09:39.263Z,100658.18
2018-05-25T18:12:07.603Z,100666.14
2018-05-25T18:14:35.886Z,100664.19
2018-05-25T18:17:04.230Z,100661.52
2018-05-25T18:19:33.285Z,100663.38
2018-05-25T18:22:02.347Z,100666.55
2018-05-25T18:24:30.661Z,100668.97
2018-05-25T18:26:58.972Z,100666.06
2018-05-25T18:29:28.009Z,100672.36
2018-05-25T18:31:56.272Z,100671.45
2018-05-25T18:34:24.630Z,100665.80
2018-05-25T18:36:53.741Z,100660.54
2018-05-25T18:39:22.015Z,100657.23
2018-05-25T18:41:50.348Z,100661.24
2018-05-25T18:44:19.624Z,100667.34
2018-05-25T18:46:47.897Z,100665.62
2018-05-25T18:49:16.228Z,100667.97
2018-05-25T18:51:46.044Z,100667.06
2018-05-25T18:54:32.045Z,100677.19
2018-05-25T18:57:00.318Z,100668.58
2018-05-25T18:59:29.395Z,100678.52
2018-05-25T19:01:57.718Z,100682.62
2018-05-25T19:04:26.041Z,100687.34
2018-05-25T19:06:54.667Z,100683.31
2018-05-25T19:09:23.017Z,100691.22
2018-05-25T19:11:51.313Z,100701.32
2018-05-25T19:14:19.617Z,100697.28
2018-05-25T19:16:47.903Z,100704.63
2018-05-25T19:21:50.012Z,100712.55
2018-05-25T19:24:18.312Z,100717.06
2018-05-25T19:26:47.433Z,100712.88
2018-05-25T19:29:15.702Z,100714.39
2018-05-25T19:31:44.742Z,100714.82
2018-05-25T19:34:13.833Z,100719.95
2018-05-25T19:36:42.173Z,100716.32
2018-05-25T19:39:10.480Z,100719.16
2018-05-25T19:41:38.804Z,100725.91
2018-05-25T19:44:07.158Z,100726.47
2018-05-25T19:46:35.456Z,100721.20
2018-05-25T19:49:03.775Z,100727.16
2018-05-25T19:51:32.107Z,100723.09
2018-05-25T19:54:00.439Z,100733.53
2018-05-25T19:56:28.775Z,100730.02
2018-05-25T19:58:57.184Z,100729.88
2018-05-25T20:01:25.481Z,100732.45
2018-05-25T20:03:53.811Z,100730.69
2018-05-25T20:06:22.161Z,100747.74
2018-05-25T20:08:50.482Z,100740.18
2018-05-25T20:11:19.614Z,100738.67
2018-05-25T20:13:47.900Z,100734.20
2018-05-25T20:16:16.287Z,100737.88
2018-05-25T20:18:44.559Z,100737.34
2018-05-25T20:21:12.926Z,100733.26
2018-05-25T20:23:41.325Z,100744.63
2018-05-25T20:26:09.636Z,100743.43
2018-05-25T20:28:37.937Z,100747.35
2018-05-25T20:31:06.388Z,100745.44
2018-05-25T20:33:34.735Z,100740.98
2018-05-25T20:36:03.067Z,100742.33
2018-05-25T20:38:32.146Z,100742.87
2018-05-25T20:41:00.898Z,100735.98
2018-05-25T20:43:29.228Z,100740.97
2018-05-25T20:45:57.667Z,100741.66
2018-05-25T20:48:25.985Z,100741.77
2018-05-25T20:50:55.067Z,100745.44
2018-05-25T20:53:23.417Z,100740.71
2018-05-25T20:55:51.709Z,100743.13
2018-05-25T20:58:20.940Z,100743.42
2018-05-25T21:00:49.254Z,100740.17
2018-05-25T21:03:17.575Z,100734.86
2018-05-25T21:05:45.893Z,100741.23
2018-05-25T21:08:14.191Z,100738.80
2018-05-25T21:10:42.522Z,100735.83
2018-05-25T21:13:11.601Z,100735.02
2018-05-25T21:15:39.930Z,100733.10
2018-05-25T21:18:08.274Z,100732.86
2018-05-25T21:20:37.341Z,100735.81
2018-05-25T21:23:05.943Z,100738.52
2018-05-25T21:25:34.996Z,100735.14
2018-05-25T21:28:03.583Z,100742.15
2018-05-25T21:30:31.906Z,100745.13
2018-05-25T21:33:00.959Z,100752.30
2018-05-25T21:35:29.253Z,100754.30
2018-05-25T21:37:57.578Z,100752.82
2018-05-25T21:40:25.885Z,100756.20
2018-05-25T21:42:54.219Z,100751.34
2018-05-25T21:45:23.273Z,100749.83
2018-05-25T21:50:26.486Z,100746.59
2018-05-25T21:52:54.821Z,100748.54
2018-05-25T21:55:23.128Z,100753.30
2018-05-25T21:57:51.450Z,100745.16
2018-05-25T22:00:20.510Z,100757.46
2018-05-25T22:02:48.912Z,100756.93
2018-05-25T22:05:17.242Z,100762.05
2018-05-25T22:07:45.570Z,100764.90
2018-05-25T22:10:13.904Z,100764.98
2018-05-25T22:12:42.249Z,100764.45
2018-05-25T22:17:45.840Z,100767.69
2018-05-25T22:20:15.104Z,100767.69
2018-05-25T22:22:43.579Z,100775.94
2018-05-25T22:25:12.081Z,100770.92
2018-05-25T22:27:40.370Z,100768.32
2018-05-25T22:30:08.846Z,100772.09
2018-05-25T22:32:37.195Z,100772.63
2018-05-25T22:35:05.489Z,100775.87
2018-05-25T22:37:33.846Z,100772.50
2018-05-25T22:40:02.194Z,100778.19
2018-05-25T22:42:48.915Z,100777.38
2018-05-25T22:45:35.054Z,100777.08
2018-05-25T22:48:22.050Z,100783.84
2018-05-25T22:51:08.073Z,100782.08
2018-05-25T22:53:41.190Z,100789.95
2018-05-25T22:56:09.492Z,100796.69
2018-05-25T22:58:37.849Z,100799.12
2018-05-25T23:01:09.045Z,100801.27
2018-05-25T23:03:37.326Z,100798.02
2018-05-25T23:06:05.630Z,100802.19
2018-05-25T23:08:33.937Z,100796.94
2018-05-25T23:11:03.046Z,100796.51
2018-05-25T23:13:32.144Z,100799.06
2018-05-25T23:16:00.438Z,100791.76
2018-05-25T23:18:28.768Z,100789.33
2018-05-25T23:20:57.072Z,100787.16
2018-05-25T23:23:26.206Z,100781.30
2018-05-25T23:25:54.519Z,100783.63
2018-05-25T23:28:22.840Z,100778.58
2018-05-25T23:30:51.148Z,100774.91
2018-05-25T23:33:19.496Z,100779.77
2018-05-25T23:35:47.828Z,100779.64
2018-05-25T23:38:16.655Z,100775.96
2018-05-25T23:40:44.957Z,100781.39
2018-05-25T23:43:13.285Z,100779.61
2018-05-25T23:45:42.376Z,100782.55
2018-05-25T23:48:10.678Z,100783.61
2018-05-25T23:50:38.964Z,100786.01
2018-05-25T23:53:07.260Z,100782.73
2018-05-25T23:55:35.586Z,100779.60
2018-05-25T23:58:03.920Z,100783.38
